Ana Sayfa
METAR-TAF:

METAR-TAF

Havaalanları :

Santoron, Yunanistan

Enlem: 36-24N, Boylam: 025-29E, yükseklik: 38 m

Güncel hava durumu gözlemi

Rapor saat 15:20 UTC de 16 dakika önce yapıldı.
Rüzgar kuzey/kuzeybatıdan 18 kt
Sıcaklık 23°C
Nem 65%
Basınç 1010 hPa
Görüş mesafesi 10 km veya daha fazla
2500 ft yükseklikte az bulutlu

METAR: LGSR 261520Z 34018KT 9999 FEW025 23/16 Q1010

Saat: 18:36 (15:36 UTC)

Tahmin

Rapor saat 11:00 UTC de 4 saat ve 36 dakika önce yapıldı.
Ayın 26'si saat 12 UTC'den ayın 27'si saat 12 UTC'ye kadar geçerli Tahmin
Rüzgar kuzeydan 20 kt
Görüş mesafesi 10 km veya daha fazla
2500 ft yükseklikte az bulutlu
Geçici
ayın 26'si saat 12 UTC'den ayın 27'si saat 06 UTC'ye kadar
Rüzgar kuzey/kuzeybatıdan 22 kt ve 32 kt'a kadar ani rüzgarlar

TAF: LGSR 261100Z 2612/2712 35020KT 9999 FEW025 TEMPO 2612/2706 34022G32KT

4.000'den fazla havaalanı için hava durumu gözlemleri ve tahminleri (METAR ve TAF raporları).

Kullanılabilir istasyonlar harita üzerinde sarı ve kırmızı noktalarla gösterilir.

İstasyonun adını görmek için fareyi noktanın üzerinde gezdirin.

Sonrasında hava gözlem ve tahminlerini görmek için tıklayın.

Haritayı değiştirmek için: yaklaştırmak için siyah artı işaretli yeşil düğmeye ve uzaklaştırmak için de eksi işaretli düğmeye hızla tıklayın; bitişik haritalar için yeşil okları kullanın.


METAR-TAF: